createdAt,value
2017-11-22T00:02:17.068Z,96830.30
2017-11-22T00:04:47.126Z,96825.13
2017-11-22T00:07:14.936Z,96832.98
2017-11-22T00:09:42.534Z,96832.94
2017-11-22T00:12:10.117Z,96823.23
2017-11-22T00:14:37.739Z,96826.06
2017-11-22T00:17:05.322Z,96820.09
2017-11-22T00:19:32.948Z,96823.31
2017-11-22T00:22:00.562Z,96822.80
2017-11-22T00:24:28.160Z,96818.09
2017-11-22T00:26:55.765Z,96816.25
2017-11-22T00:29:23.350Z,96818.64
2017-11-22T00:31:50.995Z,96816.00
2017-11-22T00:34:18.579Z,96812.50
2017-11-22T00:36:46.175Z,96810.34
2017-11-22T00:39:13.798Z,96809.83
2017-11-22T00:41:41.390Z,96807.16
2017-11-22T00:44:12.146Z,96808.75
2017-11-22T00:46:39.735Z,96804.95
2017-11-22T00:49:07.616Z,96804.16
2017-11-22T00:51:35.184Z,96802.48
2017-11-22T00:54:02.862Z,96806.63
2017-11-22T00:56:30.457Z,96801.80
2017-11-22T00:58:58.052Z,96805.09
2017-11-22T01:01:25.692Z,96799.64
2017-11-22T01:03:53.264Z,96805.41
2017-11-22T01:06:20.837Z,96807.43
2017-11-22T01:08:48.456Z,96812.77
2017-11-22T01:11:23.720Z,96810.60
2017-11-22T01:13:51.717Z,96819.00
2017-11-22T01:16:19.300Z,96818.78
2017-11-22T01:18:46.920Z,96816.58
2017-11-22T01:21:20.878Z,96821.07
2017-11-22T01:23:48.430Z,96820.95
2017-11-22T01:26:19.529Z,96825.14
2017-11-22T01:28:47.106Z,96820.47
2017-11-22T01:31:14.677Z,96823.37
2017-11-22T01:33:42.294Z,96817.14
2017-11-22T01:36:09.880Z,96807.49
2017-11-22T01:38:40.616Z,96807.92
2017-11-22T01:41:21.097Z,96804.94
2017-11-22T01:43:48.690Z,96807.32
2017-11-22T01:46:16.281Z,96805.63
2017-11-22T01:48:43.846Z,96808.45
2017-11-22T01:51:11.423Z,96803.29
2017-11-22T01:53:38.991Z,96799.87
2017-11-22T01:56:06.596Z,96792.34
2017-11-22T01:58:34.180Z,96804.85
2017-11-22T02:01:01.801Z,96799.83
2017-11-22T02:03:35.874Z,96804.46
2017-11-22T02:06:03.491Z,96794.38
2017-11-22T02:08:31.064Z,96795.24
2017-11-22T02:10:58.668Z,96788.54
2017-11-22T02:13:26.269Z,96789.75
2017-11-22T02:15:53.882Z,96788.93
2017-11-22T02:18:22.224Z,96783.44
2017-11-22T02:20:49.819Z,96788.02
2017-11-22T02:23:17.424Z,96791.83
2017-11-22T02:25:47.158Z,96789.27
2017-11-22T02:28:14.739Z,96796.67
2017-11-22T02:30:42.388Z,96789.52
2017-11-22T02:33:10.054Z,96795.62
2017-11-22T02:35:37.653Z,96790.05
2017-11-22T02:38:05.243Z,96788.73
2017-11-22T02:40:33.176Z,96782.30
2017-11-22T02:43:00.838Z,96787.70
2017-11-22T02:45:28.403Z,96786.78
2017-11-22T02:47:56.017Z,96782.94
2017-11-22T02:50:23.611Z,96782.89
2017-11-22T02:52:51.246Z,96784.00
2017-11-22T02:55:18.878Z,96782.19
2017-11-22T02:57:46.491Z,96781.23
2017-11-22T03:00:14.459Z,96776.98
2017-11-22T03:02:42.084Z,96781.05
2017-11-22T03:05:12.599Z,96787.32
2017-11-22T03:07:40.185Z,96788.56
2017-11-22T03:10:07.763Z,96785.09
2017-11-22T03:12:35.352Z,96794.64
2017-11-22T03:15:02.982Z,96793.69
2017-11-22T03:17:30.551Z,96797.36
2017-11-22T03:20:01.860Z,96794.38
2017-11-22T03:22:29.469Z,96798.86
2017-11-22T03:24:57.050Z,96795.44
2017-11-22T03:27:25.506Z,96804.11
2017-11-22T03:29:53.103Z,96803.25
2017-11-22T03:32:20.673Z,96796.51
2017-11-22T03:34:48.273Z,96793.13
2017-11-22T03:37:17.042Z,96793.94
2017-11-22T03:39:44.663Z,96791.02
2017-11-22T03:42:12.242Z,96794.67
2017-11-22T03:44:39.847Z,96798.72
2017-11-22T03:47:07.467Z,96799.10
2017-11-22T03:49:40.779Z,96800.27
2017-11-22T03:52:13.899Z,96801.42
2017-11-22T03:54:41.492Z,96795.88
2017-11-22T03:57:09.082Z,96795.30
2017-11-22T03:59:36.655Z,96806.09
2017-11-22T04:02:06.193Z,96809.36
2017-11-22T04:04:34.571Z,96815.15
2017-11-22T04:07:16.902Z,96814.66
2017-11-22T04:09:44.487Z,96807.05
2017-11-22T04:12:12.066Z,96805.36
2017-11-22T04:14:39.641Z,96809.17
2017-11-22T04:17:07.257Z,96804.65
2017-11-22T04:19:39.665Z,96803.00
2017-11-22T04:22:07.344Z,96795.88
2017-11-22T04:24:34.926Z,96800.94
2017-11-22T04:27:02.499Z,96798.81
2017-11-22T04:29:30.162Z,96802.08
2017-11-22T04:32:18.757Z,96796.45
2017-11-22T04:34:46.379Z,96796.80
2017-11-22T04:37:13.965Z,96798.81
2017-11-22T04:39:41.544Z,96789.13
2017-11-22T04:42:09.141Z,96792.83
2017-11-22T04:44:36.708Z,96791.58
2017-11-22T04:47:04.451Z,96791.09
2017-11-22T04:49:32.037Z,96787.24
2017-11-22T04:51:59.655Z,96790.13
2017-11-22T04:54:37.578Z,96780.06
2017-11-22T04:57:05.476Z,96783.23
2017-11-22T04:59:33.075Z,96773.52
2017-11-22T05:02:21.170Z,96773.89
2017-11-22T05:04:51.298Z,96772.59
2017-11-22T05:07:18.881Z,96770.47
2017-11-22T05:09:46.479Z,96770.47
2017-11-22T05:12:14.060Z,96768.30
2017-11-22T05:14:41.639Z,96776.10
2017-11-22T05:17:12.287Z,96772.62
2017-11-22T05:19:39.905Z,96780.03
2017-11-22T05:22:07.478Z,96769.91
2017-11-22T05:24:35.073Z,96773.57
2017-11-22T05:27:05.078Z,96780.22
2017-11-22T05:29:32.662Z,96779.06
2017-11-22T05:32:00.558Z,96776.56
2017-11-22T05:34:28.193Z,96776.03
2017-11-22T05:36:55.807Z,96776.80
2017-11-22T05:39:26.593Z,96783.54
2017-11-22T05:41:54.180Z,96778.42
2017-11-22T05:44:21.776Z,96777.98
2017-11-22T05:46:49.372Z,96774.67
2017-11-22T05:49:16.940Z,96777.51
2017-11-22T05:51:44.507Z,96781.64
2017-11-22T05:54:13.077Z,96778.32
2017-11-22T05:56:41.712Z,96782.91
2017-11-22T06:01:41.635Z,96788.00
2017-11-22T06:04:09.231Z,96781.31
2017-11-22T06:06:36.823Z,96780.83
2017-11-22T06:09:04.427Z,96779.52
2017-11-22T06:11:32.039Z,96775.77
2017-11-22T06:13:59.623Z,96769.80
2017-11-22T06:16:27.192Z,96761.80
2017-11-22T06:18:54.800Z,96760.17
2017-11-22T06:21:37.504Z,96758.09
2017-11-22T06:24:05.096Z,96765.89
2017-11-22T06:26:32.668Z,96770.51
2017-11-22T06:29:00.316Z,96772.19
2017-11-22T06:31:27.950Z,96767.13
2017-11-22T06:33:55.531Z,96769.92
2017-11-22T06:39:11.644Z,96769.72
2017-11-22T06:41:39.222Z,96775.97
2017-11-22T06:46:39.493Z,96786.09
2017-11-22T06:49:07.693Z,96783.59
2017-11-22T06:51:35.577Z,96786.95
2017-11-22T06:54:03.160Z,96785.75
2017-11-22T06:56:38.264Z,96782.86
2017-11-22T06:59:05.841Z,96789.66
2017-11-22T07:01:33.417Z,96780.91
2017-11-22T07:04:01.021Z,96784.27
2017-11-22T07:06:28.654Z,96780.47
2017-11-22T07:08:56.281Z,96781.02
2017-11-22T07:11:23.836Z,96779.08
2017-11-22T07:13:51.523Z,96779.63
2017-11-22T07:16:24.532Z,96775.16
2017-11-22T07:18:52.158Z,96773.09
2017-11-22T07:21:27.098Z,96779.02
2017-11-22T07:23:55.048Z,96785.03
2017-11-22T07:26:26.116Z,96777.16
2017-11-22T07:28:59.899Z,96775.61
2017-11-22T07:31:27.476Z,96781.25
2017-11-22T07:33:55.070Z,96783.86
2017-11-22T07:36:28.245Z,96784.02
2017-11-22T07:38:55.795Z,96773.76
2017-11-22T07:41:26.795Z,96772.27
2017-11-22T07:43:54.364Z,96773.77
2017-11-22T07:46:21.998Z,96783.16
2017-11-22T07:48:49.591Z,96779.11
2017-11-22T07:51:24.430Z,96786.87
2017-11-22T07:53:52.008Z,96776.27
2017-11-22T07:56:35.004Z,96781.91
2017-11-22T07:59:06.592Z,96777.61
2017-11-22T08:01:34.201Z,96777.89
2017-11-22T08:04:08.824Z,96776.05
2017-11-22T08:06:40.224Z,96778.97
2017-11-22T08:09:07.822Z,96768.05
2017-11-22T08:11:35.402Z,96769.45
2017-11-22T08:14:03.041Z,96773.45
2017-11-22T08:16:36.972Z,96777.46
2017-11-22T08:19:04.640Z,96774.32
2017-11-22T08:21:32.256Z,96783.25
2017-11-22T08:23:59.839Z,96785.47
2017-11-22T08:26:27.474Z,96787.12
2017-11-22T08:28:55.086Z,96784.80
2017-11-22T08:31:22.700Z,96791.36
2017-11-22T08:33:50.301Z,96790.37
2017-11-22T08:36:17.900Z,96787.22
2017-11-22T08:38:45.503Z,96789.56
2017-11-22T08:41:13.084Z,96782.71
2017-11-22T08:43:44.589Z,96775.03
2017-11-22T08:46:12.202Z,96770.75
2017-11-22T08:48:41.454Z,96771.46
2017-11-22T08:51:09.087Z,96770.91
2017-11-22T08:53:36.713Z,96774.09
2017-11-22T08:56:09.809Z,96771.05
2017-11-22T08:58:37.425Z,96764.69
2017-11-22T09:01:05.023Z,96764.42
2017-11-22T09:03:38.117Z,96761.73
2017-11-22T09:06:11.115Z,96763.70
2017-11-22T09:08:38.846Z,96768.61
2017-11-22T09:11:06.431Z,96775.55
2017-11-22T09:13:34.031Z,96772.47
2017-11-22T09:16:01.640Z,96774.77
2017-11-22T09:18:39.313Z,96777.86
2017-11-22T09:21:09.694Z,96777.59
2017-11-22T09:23:37.481Z,96778.23
2017-11-22T09:26:05.395Z,96779.63
2017-11-22T09:28:33.014Z,96789.10
2017-11-22T09:31:06.162Z,96787.60
2017-11-22T09:33:33.754Z,96794.90
2017-11-22T09:36:01.346Z,96790.02
2017-11-22T09:38:28.963Z,96795.24
2017-11-22T09:40:56.536Z,96797.08
2017-11-22T09:43:27.676Z,96799.45
2017-11-22T09:46:01.835Z,96800.94
2017-11-22T09:48:29.478Z,96788.45
2017-11-22T09:50:57.052Z,96789.88
2017-11-22T09:53:24.632Z,96786.77
2017-11-22T09:55:52.242Z,96784.02
2017-11-22T09:58:21.283Z,96781.65
2017-11-22T10:00:48.990Z,96783.48
2017-11-22T10:03:19.816Z,96777.31
2017-11-22T10:05:47.420Z,96775.34
2017-11-22T10:08:14.991Z,96775.06
2017-11-22T10:10:42.568Z,96773.53
2017-11-22T10:13:10.168Z,96773.69
2017-11-22T10:15:37.749Z,96774.23
2017-11-22T10:18:11.314Z,96767.13
2017-11-22T10:20:44.487Z,96771.02
2017-11-22T10:23:17.607Z,96764.74
2017-11-22T10:25:45.176Z,96758.17
2017-11-22T10:28:12.790Z,96759.52
2017-11-22T10:30:44.377Z,96758.75
2017-11-22T10:33:16.954Z,96758.00
2017-11-22T10:35:44.593Z,96761.03
2017-11-22T10:38:15.708Z,96749.70
2017-11-22T10:40:43.295Z,96743.50
2017-11-22T10:43:11.752Z,96744.86
2017-11-22T10:45:39.335Z,96747.11
2017-11-22T10:48:06.927Z,96739.64
2017-11-22T10:50:37.933Z,96727.92
2017-11-22T10:53:05.540Z,96729.28
2017-11-22T10:55:33.130Z,96729.36
2017-11-22T10:58:00.705Z,96718.41
2017-11-22T11:00:28.294Z,96718.47
2017-11-22T11:02:55.907Z,96719.81
2017-11-22T11:05:23.489Z,96720.29
2017-11-22T11:07:51.407Z,96715.70
2017-11-22T11:10:19.036Z,96713.61
2017-11-22T11:12:46.642Z,96711.11
2017-11-22T11:15:15.411Z,96715.41
2017-11-22T11:17:43.012Z,96717.13
2017-11-22T11:20:10.621Z,96718.03
2017-11-22T11:22:38.241Z,96711.69
2017-11-22T11:25:05.829Z,96716.39
2017-11-22T11:27:33.415Z,96715.14
2017-11-22T11:30:01.028Z,96709.66
2017-11-22T11:32:34.632Z,96704.16
2017-11-22T11:35:02.293Z,96706.27
2017-11-22T11:37:29.869Z,96699.08
2017-11-22T11:39:57.466Z,96710.93
2017-11-22T11:42:25.076Z,96707.55
2017-11-22T11:44:52.640Z,96708.37
2017-11-22T11:47:20.261Z,96700.75
2017-11-22T11:49:53.596Z,96699.45
2017-11-22T11:52:21.202Z,96707.48
2017-11-22T11:54:48.794Z,96703.20
2017-11-22T11:57:16.395Z,96702.34
2017-11-22T11:59:44.006Z,96696.83
2017-11-22T12:02:11.595Z,96701.05
2017-11-22T12:04:39.195Z,96699.77
2017-11-22T12:07:06.768Z,96699.73
2017-11-22T12:09:34.410Z,96693.80
2017-11-22T12:12:01.998Z,96698.42
2017-11-22T12:14:29.583Z,96692.05
2017-11-22T12:16:57.195Z,96690.30
2017-11-22T12:19:24.890Z,96684.34
2017-11-22T12:21:58.017Z,96685.61
2017-11-22T12:24:29.493Z,96687.75
2017-11-22T12:26:57.107Z,96686.09
2017-11-22T12:29:25.032Z,96686.08
2017-11-22T12:31:52.698Z,96697.12
2017-11-22T12:34:20.276Z,96690.71
2017-11-22T12:36:47.864Z,96690.69
2017-11-22T12:39:15.503Z,96699.61
2017-11-22T12:41:43.078Z,96680.95
2017-11-22T12:44:19.257Z,96680.05
2017-11-22T12:46:46.845Z,96682.19
2017-11-22T12:49:14.429Z,96678.81
2017-11-22T12:51:42.086Z,96680.53
2017-11-22T12:54:10.376Z,96673.30
2017-11-22T12:56:38.493Z,96677.95
2017-11-22T12:59:06.085Z,96676.27
2017-11-22T13:01:34.191Z,96676.67
2017-11-22T13:04:01.780Z,96672.84
2017-11-22T13:06:32.928Z,96665.64
2017-11-22T13:09:00.517Z,96672.00
2017-11-22T13:11:33.647Z,96672.43
2017-11-22T13:14:06.703Z,96668.58
2017-11-22T13:16:34.287Z,96666.91
2017-11-22T13:19:02.608Z,96675.02
2017-11-22T13:21:30.213Z,96668.21
2017-11-22T13:23:57.798Z,96674.19
2017-11-22T13:26:25.409Z,96670.38
2017-11-22T13:28:52.998Z,96664.43
2017-11-22T13:31:20.786Z,96664.42
2017-11-22T13:33:48.359Z,96670.77
2017-11-22T13:36:15.978Z,96668.23
2017-11-22T13:38:43.590Z,96672.05
2017-11-22T13:41:11.193Z,96666.08
2017-11-22T13:43:41.706Z,96674.54
2017-11-22T13:46:09.277Z,96673.24
2017-11-22T13:48:36.864Z,96671.11
2017-11-22T13:51:10.979Z,96674.97
2017-11-22T13:53:38.586Z,96674.99
2017-11-22T13:56:06.149Z,96672.88
2017-11-22T13:58:33.742Z,96669.50
2017-11-22T14:01:01.358Z,96665.73
2017-11-22T14:03:28.972Z,96669.58
2017-11-22T14:05:56.625Z,96670.86
2017-11-22T14:08:24.238Z,96669.58
2017-11-22T14:10:51.862Z,96670.87
2017-11-22T14:13:19.416Z,96670.44
2017-11-22T14:15:47.001Z,96667.06
2017-11-22T14:18:14.596Z,96665.77
2017-11-22T14:20:42.161Z,96662.33
2017-11-22T14:23:09.787Z,96663.19
2017-11-22T14:25:37.411Z,96661.50
2017-11-22T14:28:05.305Z,96659.38
2017-11-22T14:30:32.881Z,96657.23
2017-11-22T14:33:00.463Z,96657.69
2017-11-22T14:35:28.072Z,96661.97
2017-11-22T14:37:55.652Z,96666.22
2017-11-22T14:40:23.270Z,96661.15
2017-11-22T14:42:50.850Z,96661.98
2017-11-22T14:45:18.447Z,96663.70
2017-11-22T14:47:46.079Z,96661.17
2017-11-22T14:50:13.865Z,96659.92
2017-11-22T14:52:41.502Z,96667.15
2017-11-22T14:55:09.247Z,96663.78
2017-11-22T14:57:36.814Z,96657.89
2017-11-22T15:00:04.407Z,96654.50
2017-11-22T15:02:31.986Z,96655.37
2017-11-22T15:04:59.636Z,96659.20
2017-11-22T15:07:27.319Z,96659.65
2017-11-22T15:09:54.932Z,96663.47
2017-11-22T15:12:23.298Z,96666.45
2017-11-22T15:14:50.898Z,96661.78
2017-11-22T15:17:19.022Z,96655.41
2017-11-22T15:19:46.629Z,96656.25
2017-11-22T15:22:14.252Z,96663.40
2017-11-22T15:24:43.585Z,96658.30
2017-11-22T15:27:11.199Z,96659.94
2017-11-22T15:29:38.805Z,96659.91
2017-11-22T15:32:06.372Z,96653.08
2017-11-22T15:34:33.981Z,96653.86
2017-11-22T15:37:01.567Z,96656.75
2017-11-22T15:39:29.207Z,96655.42
2017-11-22T15:41:56.801Z,96650.69
2017-11-22T15:44:24.475Z,96651.05
2017-11-22T15:46:55.663Z,96660.70
2017-11-22T15:49:23.238Z,96665.66
2017-11-22T15:51:50.853Z,96667.25
2017-11-22T15:54:18.443Z,96668.03
2017-11-22T15:56:46.085Z,96665.38
2017-11-22T15:59:14.037Z,96677.54
2017-11-22T16:01:41.628Z,96672.81
2017-11-22T16:04:09.233Z,96669.78
2017-11-22T16:06:36.845Z,96676.05
2017-11-22T16:09:04.454Z,96675.11
2017-11-22T16:11:32.063Z,96674.17
2017-11-22T16:13:59.655Z,96671.91
2017-11-22T16:16:27.249Z,96668.39
2017-11-22T16:18:54.900Z,96670.34
2017-11-22T16:21:22.498Z,96672.43
2017-11-22T16:23:50.111Z,96682.44
2017-11-22T16:26:18.823Z,96676.87
2017-11-22T16:28:46.462Z,96678.05
2017-11-22T16:31:14.065Z,96677.56
2017-11-22T16:33:41.675Z,96673.31
2017-11-22T16:36:09.302Z,96676.62
2017-11-22T16:38:37.693Z,96672.36
2017-11-22T16:41:05.818Z,96672.69
2017-11-22T16:43:33.407Z,96678.48
2017-11-22T16:46:01.073Z,96670.73
2017-11-22T16:48:28.672Z,96676.13
2017-11-22T16:50:56.323Z,96679.37
2017-11-22T16:53:25.581Z,96677.14
2017-11-22T16:55:53.202Z,96679.59
2017-11-22T16:58:20.833Z,96680.79
2017-11-22T17:00:48.468Z,96679.04
2017-11-22T17:03:16.067Z,96682.30
2017-11-22T17:05:43.680Z,96681.34
2017-11-22T17:08:11.286Z,96686.33
2017-11-22T17:10:38.896Z,96687.97
2017-11-22T17:13:06.530Z,96687.09
2017-11-22T17:15:34.140Z,96684.09
2017-11-22T17:18:03.201Z,96681.53
2017-11-22T17:20:30.853Z,96681.41
2017-11-22T17:22:58.456Z,96673.75
2017-11-22T17:25:26.130Z,96681.25
2017-11-22T17:27:53.758Z,96676.59
2017-11-22T17:30:21.373Z,96676.09
2017-11-22T17:32:49.327Z,96678.97
2017-11-22T17:35:16.954Z,96676.80
2017-11-22T17:37:44.568Z,96680.54
2017-11-22T17:40:12.207Z,96679.66
2017-11-22T17:42:39.821Z,96670.70
2017-11-22T17:45:07.485Z,96674.42
2017-11-22T17:47:35.122Z,96665.52
2017-11-22T17:50:02.773Z,96662.89
2017-11-22T17:52:30.558Z,96666.58
2017-11-22T17:54:58.576Z,96654.67
2017-11-22T17:57:26.222Z,96662.11
2017-11-22T17:59:53.832Z,96668.31
2017-11-22T18:02:21.494Z,96666.06
2017-11-22T18:04:49.131Z,96654.97
2017-11-22T18:07:16.765Z,96649.33
2017-11-22T18:09:44.390Z,96649.23
2017-11-22T18:12:13.925Z,96646.11
2017-11-22T18:14:41.572Z,96649.73
2017-11-22T18:17:09.230Z,96654.59
2017-11-22T18:19:37.407Z,96652.76
2017-11-22T18:22:05.072Z,96653.91
2017-11-22T18:24:34.865Z,96655.07
2017-11-22T18:27:02.490Z,96646.52
2017-11-22T18:29:30.410Z,96652.28
2017-11-22T18:31:58.071Z,96655.55
2017-11-22T18:34:27.077Z,96647.87
2017-11-22T18:36:54.742Z,96644.86
2017-11-22T18:39:22.373Z,96637.69
2017-11-22T18:41:50.086Z,96640.56
2017-11-22T18:44:17.767Z,96642.10
2017-11-22T18:46:45.440Z,96646.91
2017-11-22T18:49:15.860Z,96640.93
2017-11-22T18:51:43.577Z,96630.34
2017-11-22T18:54:11.342Z,96633.99
2017-11-22T18:56:39.054Z,96632.17
2017-11-22T18:59:06.825Z,96629.86
2017-11-22T19:01:34.527Z,96632.25
2017-11-22T19:04:02.290Z,96638.86
2017-11-22T19:06:30.036Z,96636.69
2017-11-22T19:08:57.797Z,96635.76
2017-11-22T19:11:25.613Z,96636.91
2017-11-22T19:13:53.352Z,96638.50
2017-11-22T19:16:21.156Z,96640.45
2017-11-22T19:18:49.554Z,96638.69
2017-11-22T19:21:17.287Z,96634.81
2017-11-22T19:23:45.142Z,96636.83
2017-11-22T19:26:12.947Z,96636.30
2017-11-22T19:28:40.763Z,96635.37
2017-11-22T19:31:17.154Z,96639.50
2017-11-22T19:33:56.491Z,96636.48
2017-11-22T19:36:24.286Z,96638.46
2017-11-22T19:38:52.140Z,96641.33
2017-11-22T19:41:26.762Z,96638.28
2017-11-22T19:43:54.509Z,96637.03
2017-11-22T19:46:23.394Z,96636.89
2017-11-22T19:48:51.659Z,96629.70
2017-11-22T19:51:19.794Z,96638.00
2017-11-22T19:53:47.647Z,96634.91
2017-11-22T19:56:16.913Z,96635.59
2017-11-22T19:58:44.659Z,96628.38
2017-11-22T20:01:13.298Z,96630.77
2017-11-22T20:03:42.035Z,96625.61
2017-11-22T20:06:11.322Z,96623.41
2017-11-22T20:08:43.030Z,96624.16
2017-11-22T20:11:10.797Z,96627.46
2017-11-22T20:13:39.102Z,96626.16
2017-11-22T20:16:13.446Z,96625.23
2017-11-22T20:18:41.928Z,96633.43
2017-11-22T20:21:10.073Z,96625.39
2017-11-22T20:23:37.853Z,96629.47
2017-11-22T20:26:05.689Z,96630.11
2017-11-22T20:28:33.475Z,96632.06
2017-11-22T20:31:02.062Z,96630.34
2017-11-22T20:33:30.113Z,96633.24
2017-11-22T20:35:58.279Z,96629.83
2017-11-22T20:38:26.078Z,96644.80
2017-11-22T20:40:54.314Z,96637.98
2017-11-22T20:43:22.122Z,96632.02
2017-11-22T20:58:49.980Z,96621.16
2017-11-22T21:01:17.758Z,96622.02
2017-11-22T21:03:45.648Z,96627.81
2017-11-22T21:06:13.434Z,96623.63
2017-11-22T21:08:41.200Z,96614.77
2017-11-22T21:11:10.820Z,96617.54
2017-11-22T21:13:38.575Z,96614.12
2017-11-22T21:16:06.328Z,96617.25
2017-11-22T21:18:34.114Z,96614.58
2017-11-22T21:21:02.400Z,96616.19
2017-11-22T21:23:30.207Z,96605.33
2017-11-22T21:25:57.948Z,96611.48
2017-11-22T21:28:25.776Z,96609.19
2017-11-22T21:30:53.546Z,96610.36
2017-11-22T21:33:21.410Z,96606.09
2017-11-22T21:35:49.181Z,96603.02
2017-11-22T21:38:16.941Z,96604.58
2017-11-22T21:40:44.601Z,96606.53
2017-11-22T21:43:14.609Z,96606.88
2017-11-22T21:45:42.306Z,96601.81
2017-11-22T21:48:10.004Z,96602.13
2017-11-22T21:50:37.673Z,96610.38
2017-11-22T21:53:05.639Z,96606.96
2017-11-22T21:55:33.382Z,96610.77
2017-11-22T21:58:01.005Z,96607.35
2017-11-22T22:00:28.628Z,96608.09
2017-11-22T22:02:56.271Z,96606.80
2017-11-22T22:05:23.913Z,96606.70
2017-11-22T22:07:51.516Z,96600.22
2017-11-22T22:10:19.126Z,96612.70
2017-11-22T22:12:46.744Z,96613.77
2017-11-22T22:15:15.245Z,96607.13
2017-11-22T22:17:42.950Z,96603.84
2017-11-22T22:20:11.935Z,96596.77
2017-11-22T22:22:39.525Z,96595.60
2017-11-22T22:25:07.142Z,96596.89
2017-11-22T22:27:34.784Z,96593.83
2017-11-22T22:30:02.424Z,96594.25
2017-11-22T22:32:30.039Z,96598.92
2017-11-22T22:34:57.728Z,96599.70
2017-11-22T22:37:25.349Z,96603.32
2017-11-22T22:39:52.983Z,96598.62
2017-11-22T22:42:20.793Z,96599.00
2017-11-22T22:44:48.427Z,96595.64
2017-11-22T22:47:16.076Z,96597.19
2017-11-22T22:49:43.678Z,96598.64
2017-11-22T22:52:14.200Z,96599.03
2017-11-22T22:54:41.824Z,96602.36
2017-11-22T22:57:09.441Z,96602.66
2017-11-22T22:59:37.081Z,96601.52
2017-11-22T23:02:04.672Z,96601.05
2017-11-22T23:04:32.294Z,96600.43
2017-11-22T23:06:59.929Z,96595.63
2017-11-22T23:09:27.535Z,96592.59
2017-11-22T23:11:56.501Z,96589.91
2017-11-22T23:14:24.107Z,96588.58
2017-11-22T23:16:51.705Z,96588.00
2017-11-22T23:19:20.851Z,96588.25
2017-11-22T23:21:48.504Z,96577.45
2017-11-22T23:24:16.117Z,96583.33
2017-11-22T23:26:43.763Z,96581.98
2017-11-22T23:31:43.844Z,96574.53
2017-11-22T23:34:11.433Z,96572.75
2017-11-22T23:36:39.035Z,96572.80
2017-11-22T23:39:06.664Z,96569.10
2017-11-22T23:41:34.403Z,96567.60
2017-11-22T23:44:02.035Z,96574.39
2017-11-22T23:46:29.623Z,96575.64
2017-11-22T23:48:57.241Z,96568.03
2017-11-22T23:54:00.914Z,96569.77
2017-11-22T23:56:28.537Z,96568.99
2017-11-22T23:58:56.149Z,96559.23
